sensor_id;sensor_type;location;lat;lon;timestamp;P1;P2;P0
43180;PMS7003;28798;54.950;26.362;2022-10-18T00:03:41;26.8;25.9;18.4
43180;PMS7003;28798;54.950;26.362;2022-10-18T00:13:41;28.7;27.3;18.2
43180;PMS7003;28798;54.950;26.362;2022-10-18T00:19:03;21.3;20.5;15.1
43180;PMS7003;28798;54.950;26.362;2022-10-18T00:23:47;26.4;25.9;17.8
43180;PMS7003;28798;54.950;26.362;2022-10-18T00:28:41;28.6;26.8;17.5
43180;PMS7003;28798;54.950;26.362;2022-10-18T00:33:45;31.6;30.2;18.9
43180;PMS7003;28798;54.950;26.362;2022-10-18T00:38:52;31.6;30.2;18.9
43180;PMS7003;28798;54.950;26.362;2022-10-18T00:43:51;24.5;23.5;15.6
43180;PMS7003;28798;54.950;26.362;2022-10-18T00:48:51;23.5;22.2;16.5
43180;PMS7003;28798;54.950;26.362;2022-10-18T00:53:54;25.4;25.4;16.8
43180;PMS7003;28798;54.950;26.362;2022-10-18T00:58:51;28.6;27.8;18.7
43180;PMS7003;28798;54.950;26.362;2022-10-18T01:04:17;28.6;27.8;18.7
43180;PMS7003;28798;54.950;26.362;2022-10-18T01:13:55;31.8;29.9;19.2
43180;PMS7003;28798;54.950;26.362;2022-10-18T01:18:55;31.3;30.9;21.8
43180;PMS7003;28798;54.950;26.362;2022-10-18T01:24:49;31.3;30.9;21.8
43180;PMS7003;28798;54.950;26.362;2022-10-18T01:28:45;29.4;28.9;20.5
43180;PMS7003;28798;54.950;26.362;2022-10-18T01:33:51;28;27.2;19.8
43180;PMS7003;28798;54.950;26.362;2022-10-18T01:39:03;28;27.2;19.8
43180;PMS7003;28798;54.950;26.362;2022-10-18T01:43:40;26.1;25.5;17.1
43180;PMS7003;28798;54.950;26.362;2022-10-18T01:48:41;29.7;27.9;18.1
43180;PMS7003;28798;54.950;26.362;2022-10-18T01:53:40;29.7;27.9;18.1
43180;PMS7003;28798;54.950;26.362;2022-10-18T01:58:54;32.4;30.7;20
43180;PMS7003;28798;54.950;26.362;2022-10-18T02:04:13;32.4;30.7;20
43180;PMS7003;28798;54.950;26.362;2022-10-18T02:08:41;34.5;31.2;20.7
43180;PMS7003;28798;54.950;26.362;2022-10-18T02:13:49;31.1;28.9;19.5
43180;PMS7003;28798;54.950;26.362;2022-10-18T02:18:45;33.3;29.9;18.7
43180;PMS7003;28798;54.950;26.362;2022-10-18T02:23:51;33.3;29.9;18.7
43180;PMS7003;28798;54.950;26.362;2022-10-18T02:28:45;31.4;30.2;21
43180;PMS7003;28798;54.950;26.362;2022-10-18T02:33:42;31.4;30.2;21
43180;PMS7003;28798;54.950;26.362;2022-10-18T02:43:47;31.1;29.6;20.3
43180;PMS7003;28798;54.950;26.362;2022-10-18T02:48:41;22.8;22.8;15.1
43180;PMS7003;28798;54.950;26.362;2022-10-18T02:53:53;22.8;22.8;15.1
43180;PMS7003;28798;54.950;26.362;2022-10-18T02:58:41;25.5;23;17.5
43180;PMS7003;28798;54.950;26.362;2022-10-18T03:03:41;28.6;27.5;18.9
43180;PMS7003;28798;54.950;26.362;2022-10-18T03:08:47;28.6;27.5;18.9
43180;PMS7003;28798;54.950;26.362;2022-10-18T03:13:51;29.2;28.4;20.1
43180;PMS7003;28798;54.950;26.362;2022-10-18T03:18:53;29.2;28.4;20.1
43180;PMS7003;28798;54.950;26.362;2022-10-18T03:23:57;23.1;22.5;15.8
43180;PMS7003;28798;54.950;26.362;2022-10-18T03:29:09;23.1;22.5;15.8
43180;PMS7003;28798;54.950;26.362;2022-10-18T03:33:41;27.3;26.1;19.3
43180;PMS7003;28798;54.950;26.362;2022-10-18T03:38:47;27.3;26.1;19.3
43180;PMS7003;28798;54.950;26.362;2022-10-18T03:43:41;32.9;31;20.6
43180;PMS7003;28798;54.950;26.362;2022-10-18T03:49:03;28.4;27.2;19.2
43180;PMS7003;28798;54.950;26.362;2022-10-18T03:53:59;28.4;27.2;19.2
43180;PMS7003;28798;54.950;26.362;2022-10-18T03:58:53;31.2;29.9;19.9
43180;PMS7003;28798;54.950;26.362;2022-10-18T04:03:41;31.2;29.9;19.9
43180;PMS7003;28798;54.950;26.362;2022-10-18T04:13:41;26.8;25.9;18
43180;PMS7003;28798;54.950;26.362;2022-10-18T04:18:41;26.8;25.9;18
43180;PMS7003;28798;54.950;26.362;2022-10-18T04:24:15;26.9;26.6;18.7
43180;PMS7003;28798;54.950;26.362;2022-10-18T04:28:41;31.4;30;20.5
43180;PMS7003;28798;54.950;26.362;2022-10-18T04:33:41;31.4;30;20.5
43180;PMS7003;28798;54.950;26.362;2022-10-18T04:43:41;33.9;30.5;20.5
43180;PMS7003;28798;54.950;26.362;2022-10-18T04:48:41;33.9;30.5;20.5
43180;PMS7003;28798;54.950;26.362;2022-10-18T04:53:47;33.9;30.5;20.5
43180;PMS7003;28798;54.950;26.362;2022-10-18T04:58:59;33.9;30.5;20.5
43180;PMS7003;28798;54.950;26.362;2022-10-18T05:03:41;32.1;31.1;21.1
43180;PMS7003;28798;54.950;26.362;2022-10-18T05:08:41;32.1;31.1;21.1
43180;PMS7003;28798;54.950;26.362;2022-10-18T05:13:47;28.1;27.4;19.9
43180;PMS7003;28798;54.950;26.362;2022-10-18T05:18:57;28.1;27.4;19.9
43180;PMS7003;28798;54.950;26.362;2022-10-18T05:23:53;28.1;27.4;19.9
43180;PMS7003;28798;54.950;26.362;2022-10-18T05:28:59;30.6;29.2;19.9
43180;PMS7003;28798;54.950;26.362;2022-10-18T05:33:41;16.2;14.5;5.5
43180;PMS7003;28798;54.950;26.362;2022-10-18T05:53:41;25.6;25;17
43180;PMS7003;28798;54.950;26.362;2022-10-18T05:58:41;25.6;25;17
43180;PMS7003;28798;54.950;26.362;2022-10-18T06:03:41;21.1;19.8;13.5
43180;PMS7003;28798;54.950;26.362;2022-10-18T06:08:41;25.4;24.4;18.2
43180;PMS7003;28798;54.950;26.362;2022-10-18T06:13:59;25.5;24.7;17.4
43180;PMS7003;28798;54.950;26.362;2022-10-18T06:19:01;25.5;24.7;17.4
43180;PMS7003;28798;54.950;26.362;2022-10-18T06:23:57;23.3;22.7;15.5
43180;PMS7003;28798;54.950;26.362;2022-10-18T06:28:49;23.3;22.7;15.5
43180;PMS7003;28798;54.950;26.362;2022-10-18T06:33:49;23.3;22.7;15.5
43180;PMS7003;28798;54.950;26.362;2022-10-18T06:38:41;22.2;21.3;14.2
43180;PMS7003;28798;54.950;26.362;2022-10-18T06:43:41;26.4;24.9;17.7
43180;PMS7003;28798;54.950;26.362;2022-10-18T06:48:41;26.4;24.9;17.7
43180;PMS7003;28798;54.950;26.362;2022-10-18T06:53:49;20;19.3;13.9
43180;PMS7003;28798;54.950;26.362;2022-10-18T06:58:49;16.3;15.4;11.9
43180;PMS7003;28798;54.950;26.362;2022-10-18T07:03:41;24.5;23.8;17
43180;PMS7003;28798;54.950;26.362;2022-10-18T07:08:51;24.5;23.8;17
43180;PMS7003;28798;54.950;26.362;2022-10-18T07:13:47;17.9;17.4;12.8
43180;PMS7003;28798;54.950;26.362;2022-10-18T07:18:43;23;22.4;14.8
43180;PMS7003;28798;54.950;26.362;2022-10-18T07:23:41;18.2;17.4;12.3
43180;PMS7003;28798;54.950;26.362;2022-10-18T07:28:41;18.2;17.4;12.3
43180;PMS7003;28798;54.950;26.362;2022-10-18T07:33:51;17.3;15;11.5
43180;PMS7003;28798;54.950;26.362;2022-10-18T07:38:41;16.3;15.2;11.5
43180;PMS7003;28798;54.950;26.362;2022-10-18T07:43:42;16.3;15.2;11.5
43180;PMS7003;28798;54.950;26.362;2022-10-18T07:48:49;12.1;12.1;9.9
43180;PMS7003;28798;54.950;26.362;2022-10-18T07:53:41;14.2;14.2;9.3
43180;PMS7003;28798;54.950;26.362;2022-10-18T07:59:13;14.2;14.2;9.3
43180;PMS7003;28798;54.950;26.362;2022-10-18T08:03:55;10.1;8.9;5.3
43180;PMS7003;28798;54.950;26.362;2022-10-18T08:08:41;11.6;10.8;8
43180;PMS7003;28798;54.950;26.362;2022-10-18T08:13:59;9.9;9.7;7.7
43180;PMS7003;28798;54.950;26.362;2022-10-18T08:19:01;5.9;5.7;4.1
43180;PMS7003;28798;54.950;26.362;2022-10-18T08:23:41;5.1;5.1;4.4
43180;PMS7003;28798;54.950;26.362;2022-10-18T08:28:41;5.2;5.2;4.6
43180;PMS7003;28798;54.950;26.362;2022-10-18T08:34:07;4.8;4.8;3.1
43180;PMS7003;28798;54.950;26.362;2022-10-18T08:38:59;3.8;3.8;2.2
43180;PMS7003;28798;54.950;26.362;2022-10-18T08:43:42;3.1;2.9;2.4
43180;PMS7003;28798;54.950;26.362;2022-10-18T08:48:42;2.7;2.7;2.2
43180;PMS7003;28798;54.950;26.362;2022-10-18T08:53:44;1.7;1.7;1.7
43180;PMS7003;28798;54.950;26.362;2022-10-18T08:58:41;1.7;1.7;1.7
43180;PMS7003;28798;54.950;26.362;2022-10-18T09:03:52;1.9;1.9;1.2
43180;PMS7003;28798;54.950;26.362;2022-10-18T09:08:44;1.9;1.9;1.2
43180;PMS7003;28798;54.950;26.362;2022-10-18T09:14:02;1.6;0.9;0.9
43180;PMS7003;28798;54.950;26.362;2022-10-18T09:18:45;1.4;1.4;1.4
43180;PMS7003;28798;54.950;26.362;2022-10-18T09:23:42;1.4;1.4;1.4
43180;PMS7003;28798;54.950;26.362;2022-10-18T09:28:43;1.4;1;1
43180;PMS7003;28798;54.950;26.362;2022-10-18T09:33:44;1.9;1.9;1.5
43180;PMS7003;28798;54.950;26.362;2022-10-18T09:38:41;2.8;2.8;2.5
43180;PMS7003;28798;54.950;26.362;2022-10-18T09:44:09;2.8;2.8;2.5
43180;PMS7003;28798;54.950;26.362;2022-10-18T09:48:50;2.1;2.1;1.4
43180;PMS7003;28798;54.950;26.362;2022-10-18T09:53:57;7.3;7.3;6.4
43180;PMS7003;28798;54.950;26.362;2022-10-18T09:58:42;5.7;4.5;2.9
43180;PMS7003;28798;54.950;26.362;2022-10-18T10:03:51;5.7;4.5;2.9
43180;PMS7003;28798;54.950;26.362;2022-10-18T10:08:59;18.7;17.8;14.1
43180;PMS7003;28798;54.950;26.362;2022-10-18T10:13:49;6.6;6.5;5.2
43180;PMS7003;28798;54.950;26.362;2022-10-18T10:18:50;10.9;10.9;9.5
43180;PMS7003;28798;54.950;26.362;2022-10-18T10:23:43;2.8;2.8;2.5
43180;PMS7003;28798;54.950;26.362;2022-10-18T10:28:51;3.8;3.2;2.7
43180;PMS7003;28798;54.950;26.362;2022-10-18T10:33:56;2.8;2.3;2.2
43180;PMS7003;28798;54.950;26.362;2022-10-18T10:39:03;11;10.8;9.1
43180;PMS7003;28798;54.950;26.362;2022-10-18T10:43:47;18.6;18;15.4
43180;PMS7003;28798;54.950;26.362;2022-10-18T10:48:45;15;15;12.9
43180;PMS7003;28798;54.950;26.362;2022-10-18T10:53:56;8.9;8.9;6.4
43180;PMS7003;28798;54.950;26.362;2022-10-18T10:59:00;3.9;3.9;3
43180;PMS7003;28798;54.950;26.362;2022-10-18T11:03:49;5.1;5.1;4.4
43180;PMS7003;28798;54.950;26.362;2022-10-18T11:08:59;15.1;14.7;9.7
43180;PMS7003;28798;54.950;26.362;2022-10-18T11:13:58;3.6;3.2;2.2
43180;PMS7003;28798;54.950;26.362;2022-10-18T11:19:01;4.4;4.4;4
43180;PMS7003;28798;54.950;26.362;2022-10-18T11:24:01;21.8;21.8;15.3
43180;PMS7003;28798;54.950;26.362;2022-10-18T11:28:57;8.6;8.3;5.8
43180;PMS7003;28798;54.950;26.362;2022-10-18T11:33:44;7.1;6.5;5.5
43180;PMS7003;28798;54.950;26.362;2022-10-18T11:39:12;5.9;5.8;5.1
43180;PMS7003;28798;54.950;26.362;2022-10-18T11:43:42;3.5;3.5;3.1
43180;PMS7003;28798;54.950;26.362;2022-10-18T11:49:09;2.9;2.9;2.1
43180;PMS7003;28798;54.950;26.362;2022-10-18T11:53:43;2;1.7;1.6
43180;PMS7003;28798;54.950;26.362;2022-10-18T11:58:51;2.3;2.3;1.7
43180;PMS7003;28798;54.950;26.362;2022-10-18T12:03:51;12.5;12.5;10.8
43180;PMS7003;28798;54.950;26.362;2022-10-18T12:13:50;10.8;10.8;8.8
43180;PMS7003;28798;54.950;26.362;2022-10-18T12:18:53;10.8;10.8;8.8
43180;PMS7003;28798;54.950;26.362;2022-10-18T12:23:48;2.6;2.6;2.2
43180;PMS7003;28798;54.950;26.362;2022-10-18T12:28:44;3.9;3.9;3.4
43180;PMS7003;28798;54.950;26.362;2022-10-18T12:33:57;2.9;2.7;2.1
43180;PMS7003;28798;54.950;26.362;2022-10-18T12:43:56;2;2;1.9
43180;PMS7003;28798;54.950;26.362;2022-10-18T12:48:59;1.5;1.5;1.5
43180;PMS7003;28798;54.950;26.362;2022-10-18T12:53:41;1.6;1.6;1.4
43180;PMS7003;28798;54.950;26.362;2022-10-18T12:59:04;1.5;1.5;1.1
43180;PMS7003;28798;54.950;26.362;2022-10-18T13:03:51;1.8;1.8;1.7
43180;PMS7003;28798;54.950;26.362;2022-10-18T13:09:16;1.2;1.2;1.2
43180;PMS7003;28798;54.950;26.362;2022-10-18T13:14:16;1.3;1.3;0.9
43180;PMS7003;28798;54.950;26.362;2022-10-18T13:18:59;1.8;1.8;1.5
43180;PMS7003;28798;54.950;26.362;2022-10-18T13:24:04;2.3;2.3;2.2
43180;PMS7003;28798;54.950;26.362;2022-10-18T13:28:43;2.3;2.3;2.2
43180;PMS7003;28798;54.950;26.362;2022-10-18T13:34:15;2.4;2.3;1.8
43180;PMS7003;28798;54.950;26.362;2022-10-18T13:39:03;2.4;2.4;2.1
43180;PMS7003;28798;54.950;26.362;2022-10-18T13:43:57;2.4;2.4;2.1
43180;PMS7003;28798;54.950;26.362;2022-10-18T13:48:47;1.9;1.9;1.9
43180;PMS7003;28798;54.950;26.362;2022-10-18T13:53:50;1.9;1.9;1.9
43180;PMS7003;28798;54.950;26.362;2022-10-18T13:58:42;2.9;2.5;2.2
43180;PMS7003;28798;54.950;26.362;2022-10-18T14:03:54;1.7;1.7;1.3
43180;PMS7003;28798;54.950;26.362;2022-10-18T14:08:41;2.4;2.4;2.2
43180;PMS7003;28798;54.950;26.362;2022-10-18T14:14:03;3.5;3.5;2.6
43180;PMS7003;28798;54.950;26.362;2022-10-18T14:18:47;1.4;1.4;1.1
43180;PMS7003;28798;54.950;26.362;2022-10-18T14:23:41;2.3;2.3;1.6
43180;PMS7003;28798;54.950;26.362;2022-10-18T14:29:00;1.7;1.7;1.6
43180;PMS7003;28798;54.950;26.362;2022-10-18T14:33:47;1.9;1.9;1.8
43180;PMS7003;28798;54.950;26.362;2022-10-18T14:38:55;2.3;2.3;2.2
43180;PMS7003;28798;54.950;26.362;2022-10-18T14:43:51;1.4;1.4;0.9
43180;PMS7003;28798;54.950;26.362;2022-10-18T14:48:59;1.7;1.7;1.4
43180;PMS7003;28798;54.950;26.362;2022-10-18T14:53:47;1.9;1.9;1.4
43180;PMS7003;28798;54.950;26.362;2022-10-18T14:58:53;2.9;2.3;2.1
43180;PMS7003;28798;54.950;26.362;2022-10-18T15:03:54;1.9;1.9;1.3
43180;PMS7003;28798;54.950;26.362;2022-10-18T15:13:58;2.3;2.3;1.9
43180;PMS7003;28798;54.950;26.362;2022-10-18T15:18:41;1.9;1.9;1.7
43180;PMS7003;28798;54.950;26.362;2022-10-18T15:23:41;1.9;1.8;1.4
43180;PMS7003;28798;54.950;26.362;2022-10-18T15:28:57;1.9;1.8;1.4
43180;PMS7003;28798;54.950;26.362;2022-10-18T15:33:51;2.1;1.9;1.6
43180;PMS7003;28798;54.950;26.362;2022-10-18T15:38:41;1.4;1.4;1.4
43180;PMS7003;28798;54.950;26.362;2022-10-18T15:43:47;1.8;1.8;1.5
43180;PMS7003;28798;54.950;26.362;2022-10-18T15:48:47;2.1;2.1;1.7
43180;PMS7003;28798;54.950;26.362;2022-10-18T15:54:01;2.2;2.2;2.1
43180;PMS7003;28798;54.950;26.362;2022-10-18T15:58:41;2.3;1.9;1.3
43180;PMS7003;28798;54.950;26.362;2022-10-18T16:03:49;2.3;1.9;1.3
43180;PMS7003;28798;54.950;26.362;2022-10-18T16:08:55;2.1;2.1;1.6
43180;PMS7003;28798;54.950;26.362;2022-10-18T16:13:41;1.8;1.8;1.5
43180;PMS7003;28798;54.950;26.362;2022-10-18T16:18:51;1.5;1.5;1.4
43180;PMS7003;28798;54.950;26.362;2022-10-18T16:23:45;1.8;1.8;1.1
43180;PMS7003;28798;54.950;26.362;2022-10-18T16:28:41;1.9;1.9;1.3
43180;PMS7003;28798;54.950;26.362;2022-10-18T16:34:05;2.5;2.4;1.9
43180;PMS7003;28798;54.950;26.362;2022-10-18T16:38:58;2;2;1.3
43180;PMS7003;28798;54.950;26.362;2022-10-18T16:43:57;1.9;1.9;1.7
43180;PMS7003;28798;54.950;26.362;2022-10-18T16:48:41;2.2;2.2;1.6
43180;PMS7003;28798;54.950;26.362;2022-10-18T16:53:47;2.6;2.4;1.7
43180;PMS7003;28798;54.950;26.362;2022-10-18T16:58:47;2.3;2.1;1.6
43180;PMS7003;28798;54.950;26.362;2022-10-18T17:03:41;1.5;1.5;1.2
43180;PMS7003;28798;54.950;26.362;2022-10-18T17:08:41;1.2;1.2;1
43180;PMS7003;28798;54.950;26.362;2022-10-18T17:13:57;1.1;1.1;0.9
43180;PMS7003;28798;54.950;26.362;2022-10-18T17:18:47;1.5;1.5;1.4
43180;PMS7003;28798;54.950;26.362;2022-10-18T17:23:41;1.5;1.5;1.4
43180;PMS7003;28798;54.950;26.362;2022-10-18T17:28:41;1.5;1.5;1.4
43180;PMS7003;28798;54.950;26.362;2022-10-18T17:34:01;1.1;1.1;0.8
43180;PMS7003;28798;54.950;26.362;2022-10-18T17:38:41;2.1;2.1;1.8
43180;PMS7003;28798;54.950;26.362;2022-10-18T17:43:49;2.1;2.1;1.8
43180;PMS7003;28798;54.950;26.362;2022-10-18T17:48:59;1.3;1.3;1.1
43180;PMS7003;28798;54.950;26.362;2022-10-18T17:53:41;1.3;1.3;1.1
43180;PMS7003;28798;54.950;26.362;2022-10-18T17:58:41;0.9;0.9;0.9
43180;PMS7003;28798;54.950;26.362;2022-10-18T18:03:49;1.5;1.5;1.4
43180;PMS7003;28798;54.950;26.362;2022-10-18T18:08:41;1.4;1.4;1.3
43180;PMS7003;28798;54.950;26.362;2022-10-18T18:13:41;1.4;1.4;1.3
43180;PMS7003;28798;54.950;26.362;2022-10-18T18:18:54;1.6;1.6;1.4
43180;PMS7003;28798;54.950;26.362;2022-10-18T18:24:07;1.6;1.6;1.4
43180;PMS7003;28798;54.950;26.362;2022-10-18T18:28:49;1.6;1.6;1.4
43180;PMS7003;28798;54.950;26.362;2022-10-18T18:43:50;1.6;1.6;1.4
43180;PMS7003;28798;54.950;26.362;2022-10-18T18:49:03;1.6;1.6;1.1
43180;PMS7003;28798;54.950;26.362;2022-10-18T18:53:41;1.9;1.9;1.4
43180;PMS7003;28798;54.950;26.362;2022-10-18T18:58:49;1.9;1.9;1.4
43180;PMS7003;28798;54.950;26.362;2022-10-18T19:03:50;1.9;1.9;1.4
43180;PMS7003;28798;54.950;26.362;2022-10-18T19:18:52;1.9;1.9;1.4
43180;PMS7003;28798;54.950;26.362;2022-10-18T19:23:41;1.5;1.5;1
43180;PMS7003;28798;54.950;26.362;2022-10-18T19:28:47;0.6;0.6;0.2
43180;PMS7003;28798;54.950;26.362;2022-10-18T19:33:41;2.1;2.1;1.7
43180;PMS7003;28798;54.950;26.362;2022-10-18T19:43:41;1.5;1.5;1
43180;PMS7003;28798;54.950;26.362;2022-10-18T19:48:41;1.9;1.9;1.5
43180;PMS7003;28798;54.950;26.362;2022-10-18T19:53:47;1.9;1.9;1.5
43180;PMS7003;28798;54.950;26.362;2022-10-18T19:58:53;2.3;1.8;1.4
43180;PMS7003;28798;54.950;26.362;2022-10-18T20:04:07;14.2;13.9;10.4
43180;PMS7003;28798;54.950;26.362;2022-10-18T20:08:51;9.6;8.9;6.5
43180;PMS7003;28798;54.950;26.362;2022-10-18T20:13:57;6.2;6.1;5.1
43180;PMS7003;28798;54.950;26.362;2022-10-18T20:18:53;0.9;0.6;0
43180;PMS7003;28798;54.950;26.362;2022-10-18T20:23:53;2.1;2.1;1.9
43180;PMS7003;28798;54.950;26.362;2022-10-18T20:28:41;2.1;2.1;1.9
43180;PMS7003;28798;54.950;26.362;2022-10-18T20:33:41;2.1;2.1;1.5
43180;PMS7003;28798;54.950;26.362;2022-10-18T20:38:49;2.1;2.1;1.5
43180;PMS7003;28798;54.950;26.362;2022-10-18T20:43:58;1.4;1.4;1.1
43180;PMS7003;28798;54.950;26.362;2022-10-18T20:48:55;1.4;1.4;1.1
43180;PMS7003;28798;54.950;26.362;2022-10-18T20:53:41;2.2;1.5;1.5
43180;PMS7003;28798;54.950;26.362;2022-10-18T20:58:50;2.2;1.5;1.5
43180;PMS7003;28798;54.950;26.362;2022-10-18T21:03:55;2.3;2.3;1.6
43180;PMS7003;28798;54.950;26.362;2022-10-18T21:08:41;14.1;13.6;9.1
43180;PMS7003;28798;54.950;26.362;2022-10-18T21:13:41;14.1;13.6;9.1
43180;PMS7003;28798;54.950;26.362;2022-10-18T21:18:41;12.3;11.9;8.4
43180;PMS7003;28798;54.950;26.362;2022-10-18T21:23:41;8.2;7.8;5.6
43180;PMS7003;28798;54.950;26.362;2022-10-18T21:28:41;2.9;2.9;2.1
43180;PMS7003;28798;54.950;26.362;2022-10-18T21:33:41;3.2;3.2;2.7
43180;PMS7003;28798;54.950;26.362;2022-10-18T21:38:55;5;3.3;2.5
43180;PMS7003;28798;54.950;26.362;2022-10-18T21:43:41;5;3.3;2.5
43180;PMS7003;28798;54.950;26.362;2022-10-18T21:48:52;6.7;6.5;5.9
43180;PMS7003;28798;54.950;26.362;2022-10-18T21:54:01;6.7;6.5;5.9
43180;PMS7003;28798;54.950;26.362;2022-10-18T21:58:41;2.9;2.9;2.6
43180;PMS7003;28798;54.950;26.362;2022-10-18T22:03:41;4.1;4.1;2.8
43180;PMS7003;28798;54.950;26.362;2022-10-18T22:13:41;4.1;4.1;2.8
43180;PMS7003;28798;54.950;26.362;2022-10-18T22:18:41;1.6;1.6;0.9
43180;PMS7003;28798;54.950;26.362;2022-10-18T22:23:41;2.1;2.1;1.6
43180;PMS7003;28798;54.950;26.362;2022-10-18T22:28:42;2.1;2.1;1.6
43180;PMS7003;28798;54.950;26.362;2022-10-18T22:34:04;1.9;1.4;1.2
43180;PMS7003;28798;54.950;26.362;2022-10-18T22:38:41;0.8;0.8;0.8
43180;PMS7003;28798;54.950;26.362;2022-10-18T22:43:51;0.8;0.8;0.8
43180;PMS7003;28798;54.950;26.362;2022-10-18T22:48:49;0.8;0.8;0.8
43180;PMS7003;28798;54.950;26.362;2022-10-18T22:53:41;1.8;1.4;0.8
43180;PMS7003;28798;54.950;26.362;2022-10-18T22:58:41;1.8;1.4;0.8
43180;PMS7003;28798;54.950;26.362;2022-10-18T23:03:51;0.8;0.8;0.8
43180;PMS7003;28798;54.950;26.362;2022-10-18T23:08:56;0.7;0.7;0.5
43180;PMS7003;28798;54.950;26.362;2022-10-18T23:14:02;0.7;0.7;0.5
43180;PMS7003;28798;54.950;26.362;2022-10-18T23:18:59;0.6;0.6;0.3
43180;PMS7003;28798;54.950;26.362;2022-10-18T23:23:41;0.6;0.6;0.3
43180;PMS7003;28798;54.950;26.362;2022-10-18T23:28:41;0.9;0.9;0.8
43180;PMS7003;28798;54.950;26.362;2022-10-18T23:33:58;1;1;1
43180;PMS7003;28798;54.950;26.362;2022-10-18T23:43:41;1.3;1.3;1.2
43180;PMS7003;28798;54.950;26.362;2022-10-18T23:48:53;0.8;0.8;0.5
43180;PMS7003;28798;54.950;26.362;2022-10-18T23:53:41;0.8;0.8;0.5
43180;PMS7003;28798;54.950;26.362;2022-10-18T23:58:59;1.2;1.2;0.9
